Time;durP1;ratioP1;P1;durP2;ratioP2;P2;SDS_P1;SDS_P2;PMS_P1;PMS_P2;Temp;Humidity;BMP_temperature;BMP_pressure;BME280_temperature;BME280_humidity;BME280_pressure;Samples;Min_cycle;Max_cycle;Signal;HPM_P1;HPM_P2
2021/05/18 00:00:10;;;;;;;;;;;;;;;;;;5032606;28;19925;-68
2021/05/18 00:02:37;;;;;;;;;;;;;;;;;;5029149;28;19925;-67
2021/05/18 00:05:03;;;;;;;;;;;;;;;;;;5031000;28;19925;-68
2021/05/18 00:07:30;;;;;;;;;;;;;;;;;;5030755;28;19969;-68
2021/05/18 00:12:41;;;;;;;;;;;;;;;;;;5030456;28;19920;-67
2021/05/18 00:15:07;;;;;;;;;;;;;;;;;;5032484;28;20020;-68
2021/05/18 00:17:34;;;;;;;;;;;;;;;;;;5031159;28;19972;-67
2021/05/18 00:20:00;;;;;;;;;;;;;;;;;;5031026;28;20399;-68
2021/05/18 00:22:27;;;;;;;;;;;;;;;;;;5030711;28;19925;-68
2021/05/18 00:24:53;;;;;;;;;;;;;;;;;;5031685;28;19925;-67
2021/05/18 00:27:22;;;;;;;;;;;;;;;;;;5030312;28;20328;-68
2021/05/18 00:29:49;;;;;;;;;;;;;;;;;;5030332;28;19925;-68
2021/05/18 00:32:15;;;;;;;;;;;;;;;;;;5030101;28;19987;-67
2021/05/18 00:34:42;;;;;;;;;;;;;;;;;;5031489;28;20015;-67
2021/05/18 00:37:08;;;;;;;;;;;;;;;;;;5031067;28;20051;-68
2021/05/18 00:39:35;;;;;;;;;;;;;;;;;;5030906;28;19948;-68
2021/05/18 00:42:01;;;;;;;;;;;;;;;;;;5029859;28;19929;-68
2021/05/18 00:44:28;;;;;;;;;;;;;;;;;;5030543;28;19925;-67
2021/05/18 00:46:54;;;;;;;;;;;;;;;;;;5030594;28;19925;-68
2021/05/18 00:49:22;;;;;;;;;;;;;;;;;;5029002;28;20400;-69
2021/05/18 00:51:48;;;;;;;;;;;;;;;;;;5030504;28;20288;-68
2021/05/18 00:54:21;;;;;;;;;;;;;;;;;;5029503;28;19926;-70
2021/05/18 00:59:33;;;;;;;;;;;;;;;;;;5030350;28;19936;-68
2021/05/18 01:01:59;;;;;;;;;;;;;;;;;;5031265;28;20267;-69
2021/05/18 01:04:26;;;;;;;;;;;;;;;;;;5031185;28;20365;-68
2021/05/18 01:06:52;;;;;;;;;;;;;;;;;;5030111;28;19998;-67
2021/05/18 01:09:18;;;;;;;;;;;;;;;;;;5029662;28;19925;-68
2021/05/18 01:11:45;;;;;;;;;;;;;;;;;;5029857;28;19944;-68
2021/05/18 01:14:14;;;;;;;;;;;;;;;;;;5030540;28;19929;-68
2021/05/18 01:16:43;;;;;;;;;;;;;;;;;;5030756;28;19975;-68
2021/05/18 01:19:10;;;;;;;;;;;;;;;;;;5030688;28;19925;-68
2021/05/18 01:21:36;;;;;;;;;;;;;;;;;;5029512;28;19931;-68
2021/05/18 01:24:03;;;;;;;;;;;;;;;;;;5029864;28;19979;-69
2021/05/18 01:26:29;;;;;;;;;;;;;;;;;;5030031;28;19929;-68
2021/05/18 01:28:55;;;;;;;;;;;;;;;;;;5030046;28;19925;-68
2021/05/18 01:31:23;;;;;;;;;;;;;;;;;;5030034;28;20316;-68
2021/05/18 01:33:50;;;;;;;;;;;;;;;;;;5029805;28;19925;-69
2021/05/18 01:36:18;;;;;;;;;;;;;;;;;;5029168;28;20351;-68
2021/05/18 01:38:49;;;;;;;;;;;;;;;;;;5029117;28;20444;-68
2021/05/18 01:44:00;;;;;;;;;;;;;;;;;;5029257;28;19919;-68
2021/05/18 01:46:27;;;;;;;;;;;;;;;;;;5030695;28;19933;-69
2021/05/18 01:48:57;;;;;;;;;;;;;;;;;;5030527;28;19932;-69
2021/05/18 01:51:24;;;;;;;;;;;;;;;;;;5028442;28;19933;-70
2021/05/18 01:53:50;;;;;;;;;;;;;;;;;;5028903;28;19925;-67
2021/05/18 01:56:31;;;;;;;;;;;;;;;;;;5029294;28;19926;-68
2021/05/18 01:58:58;;;;;;;;;;;;;;;;;;5027666;28;19975;-67
2021/05/18 02:01:24;;;;;;;;;;;;;;;;;;5027915;28;19932;-66
2021/05/18 02:03:51;;;;;;;;;;;;;;;;;;5023125;28;19925;-66
2021/05/18 02:06:17;;;;;;;;;;;;;;;;;;5030002;28;19925;-67
2021/05/18 02:08:44;;;;;;;;;;;;;;;;;;5029092;28;19932;-66
2021/05/18 02:11:10;;;;;;;;;;;;;;;;;;5030318;28;19925;-66
2021/05/18 02:13:42;;;;;;;;;;;;;;;;;;5031345;28;19948;-66
2021/05/18 02:16:12;;;;;;;;;;;;;;;;;;5032206;28;19964;-67
2021/05/18 02:18:53;;;;;;;;;;;;;;;;;;5032682;28;19925;-67
2021/05/18 02:21:43;;;;;;;;;;;;;;;;;;5032387;28;19940;-67
2021/05/18 02:26:54;;;;;;;;;;;;;;;;;;5027035;28;19924;-66
2021/05/18 02:29:21;;;;;;;;;;;;;;;;;;5032871;28;19991;-66
2021/05/18 02:31:48;;;;;;;;;;;;;;;;;;5033398;28;20309;-69
2021/05/18 02:34:15;;;;;;;;;;;;;;;;;;5034094;28;19925;-65
2021/05/18 02:36:41;;;;;;;;;;;;;;;;;;5033328;28;19974;-67
2021/05/18 02:39:08;;;;;;;;;;;;;;;;;;5032224;28;19993;-67
2021/05/18 02:41:34;;;;;;;;;;;;;;;;;;5030930;28;19932;-72
2021/05/18 02:44:05;;;;;;;;;;;;;;;;;;5033467;28;20304;-66
2021/05/18 02:49:17;;;;;;;;;;;;;;;;;;5030245;28;20443;-66
2021/05/18 02:51:43;;;;;;;;;;;;;;;;;;5030657;28;19925;-66
2021/05/18 02:54:11;;;;;;;;;;;;;;;;;;5032331;28;19925;-66
2021/05/18 02:56:42;;;;;;;;;;;;;;;;;;5031797;28;19971;-66
2021/05/18 02:59:12;;;;;;;;;;;;;;;;;;5033068;28;19932;-66
2021/05/18 03:01:39;;;;;;;;;;;;;;;;;;5032729;28;19931;-66
2021/05/18 03:04:06;;;;;;;;;;;;;;;;;;5031921;28;20011;-66
2021/05/18 03:06:32;;;;;;;;;;;;;;;;;;5029916;28;20296;-66
2021/05/18 03:08:58;;;;;;;;;;;;;;;;;;5031500;28;19952;-66
2021/05/18 03:11:25;;;;;;;;;;;;;;;;;;5032682;28;19933;-67
2021/05/18 03:13:51;;;;;;;;;;;;;;;;;;5033468;28;19933;-68
2021/05/18 03:16:18;;;;;;;;;;;;;;;;;;5032355;28;19932;-67
2021/05/18 03:18:44;;;;;;;;;;;;;;;;;;5032831;28;19933;-68
2021/05/18 03:21:11;;;;;;;;;;;;;;;;;;5032202;28;19968;-68
2021/05/18 03:23:37;;;;;;;;;;;;;;;;;;5032221;28;19931;-68
2021/05/18 03:26:04;;;;;;;;;;;;;;;;;;5031839;28;19970;-68
2021/05/18 03:28:30;;;;;;;;;;;;;;;;;;5047598;22;19925;-69
2021/05/18 03:31:10;;;;;;;;;;;;;;;;;;5031633;28;19940;-69
2021/05/18 03:36:21;;;;;;;;;;;;;;;;;;5032727;28;20356;-69
2021/05/18 03:38:50;;;;;;;;;;;;;;;;;;5031420;28;19929;-68
2021/05/18 03:41:20;;;;;;;;;;;;;;;;;;5031955;28;19948;-68
2021/05/18 03:43:53;;;;;;;;;;;;;;;;;;5031828;28;20153;-68
2021/05/18 03:54:41;;;;;;;;;;;;;;;;;;5031247;28;19960;-69
2021/05/18 04:02:48;;;;;;;;;;;;;;;;;;5030933;28;20304;-69
2021/05/18 04:10:09;;;;;;;;;;;;;;;;;;5031264;28;19929;-69
2021/05/18 04:11:21;;;;;;;;;;;;;;;;;;5026459;28;19923;-68
2021/05/18 04:19:19;;;;;;;;;;;;;;;;;;5027315;28;20012;-69
2021/05/18 04:21:55;;;;;;;;;;;;;;;;;;5030651;28;20039;-69
2021/05/18 04:24:58;;;;;;;;;;;;;;;;;;5031395;28;19925;-69
2021/05/18 04:38:45;;;;;;;;;;;;;;;;;;5035692;28;19963;-69
2021/05/18 04:41:37;;;;;;;;;;;;;;;;;;5031193;28;19932;-70
2021/05/18 04:52:20;;;;;;;;;;;;;;;;;;5028199;28;20060;-70
2021/05/18 05:00:18;;;;;;;;;;;;;;;;;;5030776;28;20296;-70
2021/05/18 05:08:34;;;;;;;;;;;;;;;;;;4992291;28;19952;-70
2021/05/18 05:16:31;;;;;;;;;;;;;;;;;;5030468;28;19919;-69
2021/05/18 05:18:57;;;;;;;;;;;;;;;;;;5030919;28;20051;-68
2021/05/18 05:21:29;;;;;;;;;;;;;;;;;;5030016;28;19925;-68
2021/05/18 05:23:55;;;;;;;;;;;;;;;;;;5023915;28;19991;-69
2021/05/18 05:26:22;;;;;;;;;;;;;;;;;;5030633;28;20011;-69
2021/05/18 05:28:48;;;;;;;;;;;;;;;;;;5030856;28;19925;-69
2021/05/18 05:31:15;;;;;;;;;;;;;;;;;;5026718;28;20437;-69
2021/05/18 05:33:41;;;;;;;;;;;;;;;;;;5026299;28;20403;-69
2021/05/18 05:36:08;;;;;;;;;;;;;;;;;;5030401;28;19925;-69
2021/05/18 05:38:35;;;;;;;;;;;;;;;;;;5030528;28;19925;-69
2021/05/18 05:41:01;;;;;;;;;;;;;;;;;;5029948;28;19925;-70
2021/05/18 05:43:28;;;;;;;;;;;;;;;;;;5024272;28;19932;-70
2021/05/18 05:45:54;;;;;;;;;;;;;;;;;;5027874;28;20394;-70
2021/05/18 05:48:21;;;;;;;;;;;;;;;;;;5029696;28;19971;-69
2021/05/18 05:50:47;;;;;;;;;;;;;;;;;;5030102;28;20347;-68
2021/05/18 05:53:16;;;;;;;;;;;;;;;;;;5029815;28;19925;-69
2021/05/18 05:55:42;;;;;;;;;;;;;;;;;;5030748;28;20422;-69
2021/05/18 05:58:09;;;;;;;;;;;;;;;;;;5030187;28;20028;-69
2021/05/18 06:00:35;;;;;;;;;;;;;;;;;;5030149;28;19929;-69
2021/05/18 06:03:02;;;;;;;;;;;;;;;;;;5026776;28;20281;-69
2021/05/18 06:05:28;;;;;;;;;;;;;;;;;;5031057;28;19925;-71
2021/05/18 06:07:55;;;;;;;;;;;;;;;;;;5030268;28;20362;-68
2021/05/18 06:10:24;;;;;;;;;;;;;;;;;;5028938;28;19943;-70
2021/05/18 06:13:02;;;;;;;;;;;;;;;;;;5029444;28;20020;-69
2021/05/18 06:41:08;;;;;;;;;;;;;;;;;;4943211;28;19922;-69
2021/05/18 06:43:25;;;;;;;;;;;;;;;;;;5015650;28;20392;-70
2021/05/18 06:46:08;;;;;;;;;;;;;;;;;;5019129;28;19944;-70
2021/05/18 06:48:37;;;;;;;;;;;;;;;;;;5026497;28;19951;-70
2021/05/18 06:51:04;;;;;;;;;;;;;;;;;;5022813;28;19925;-70
2021/05/18 06:53:30;;;;;;;;;;;;;;;;;;5021127;28;20460;-70
2021/05/18 06:55:58;;;;;;;;;;;;;;;;;;5023087;28;20293;-70
2021/05/18 06:58:33;;;;;;;;;;;;;;;;;;5029118;28;19932;-69
2021/05/18 07:00:59;;;;;;;;;;;;;;;;;;5029604;28;20362;-70
2021/05/18 07:03:27;;;;;;;;;;;;;;;;;;5032388;28;19971;-69
2021/05/18 07:05:59;;;;;;;;;;;;;;;;;;5029717;28;19925;-71
2021/05/18 07:11:09;;;;;;;;;;;;;;;;;;5030871;28;19957;-69
2021/05/18 07:13:36;;;;;;;;;;;;;;;;;;5031195;28;19998;-70
2021/05/18 07:16:02;;;;;;;;;;;;;;;;;;5030174;28;19932;-70
2021/05/18 07:18:28;;;;;;;;;;;;;;;;;;5029218;28;19932;-70
2021/05/18 07:20:55;;;;;;;;;;;;;;;;;;5029871;28;19936;-70
2021/05/18 07:23:25;;;;;;;;;;;;;;;;;;5031773;28;20077;-71
2021/05/18 07:25:51;;;;;;;;;;;;;;;;;;5029495;28;19929;-70
2021/05/18 07:28:19;;;;;;;;;;;;;;;;;;5031724;28;19925;-70
2021/05/18 07:30:46;;;;;;;;;;;;;;;;;;5025059;28;19928;-68
2021/05/18 07:33:12;;;;;;;;;;;;;;;;;;5034762;28;19932;-70
2021/05/18 07:35:39;;;;;;;;;;;;;;;;;;5027356;28;20296;-69
2021/05/18 07:38:05;;;;;;;;;;;;;;;;;;5030968;28;19925;-69
2021/05/18 07:40:32;;;;;;;;;;;;;;;;;;5030293;28;20027;-70
2021/05/18 07:42:59;;;;;;;;;;;;;;;;;;5027313;28;19925;-69
2021/05/18 07:45:26;;;;;;;;;;;;;;;;;;5023293;28;19929;-68
2021/05/18 07:47:53;;;;;;;;;;;;;;;;;;5029158;28;19933;-70
2021/05/18 07:50:22;;;;;;;;;;;;;;;;;;5030541;28;20308;-71
2021/05/18 08:02:18;;;;;;;;;;;;;;;;;;5017025;28;19928;-68
2021/05/18 08:06:44;;;;;;;;;;;;;;;;;;5030447;28;20406;-69
2021/05/18 08:09:10;;;;;;;;;;;;;;;;;;5029875;28;20329;-70
2021/05/18 08:11:37;;;;;;;;;;;;;;;;;;5028721;28;20383;-69
2021/05/18 08:14:03;;;;;;;;;;;;;;;;;;5029504;28;19925;-70
2021/05/18 08:19:38;;;;;;;;;;;;;;;;;;5028118;28;19923;-70
2021/05/18 08:22:39;;;;;;;;;;;;;;;;;;5027608;28;20024;-71
2021/05/18 10:15:57;;;;;;;;;;;;;;;;;;5019409;28;19963;-66
2021/05/18 10:36:44;;;;;;;;;;;;;;;;;;5023849;28;20403;-68
2021/05/18 10:39:10;;;;;;;;;;;;;;;;;;5026871;28;19975;-68
2021/05/18 10:41:37;;;;;;;;;;;;;;;;;;5026530;28;20023;-69
2021/05/18 10:44:04;;;;;;;;;;;;;;;;;;5023316;28;19960;-69
2021/05/18 10:46:34;;;;;;;;;;;;;;;;;;5024181;28;20313;-68
2021/05/18 10:49:00;;;;;;;;;;;;;;;;;;5027736;28;19933;-70
2021/05/18 10:51:27;;;;;;;;;;;;;;;;;;5023532;28;20342;-71
2021/05/18 10:53:53;;;;;;;;;;;;;;;;;;5023792;28;20401;-68
2021/05/18 10:56:20;;;;;;;;;;;;;;;;;;5024341;28;20023;-70
2021/05/18 10:58:46;;;;;;;;;;;;;;;;;;5027462;28;20023;-69
2021/05/18 11:01:13;;;;;;;;;;;;;;;;;;5025912;28;20392;-68
2021/05/18 11:03:39;;;;;;;;;;;;;;;;;;5027546;28;19933;-68
2021/05/18 11:06:08;;;;;;;;;;;;;;;;;;5027050;28;19929;-70
2021/05/18 11:08:35;;;;;;;;;;;;;;;;;;5026472;28;19979;-66
2021/05/18 11:11:04;;;;;;;;;;;;;;;;;;5028610;28;20278;-66
2021/05/18 11:13:30;;;;;;;;;;;;;;;;;;5025954;28;19929;-66
2021/05/18 11:15:57;;;;;;;;;;;;;;;;;;5026700;28;19945;-67
2021/05/18 11:18:24;;;;;;;;;;;;;;;;;;5027741;28;20020;-67
2021/05/18 11:20:58;;;;;;;;;;;;;;;;;;5024330;28;19936;-66
2021/05/18 11:23:26;;;;;;;;;;;;;;;;;;5026714;28;19935;-69
2021/05/18 11:25:54;;;;;;;;;;;;;;;;;;5022887;28;19925;-70
2021/05/18 11:28:20;;;;;;;;;;;;;;;;;;5025826;28;19932;-70
2021/05/18 11:30:49;;;;;;;;;;;;;;;;;;5024046;28;19936;-70
2021/05/18 11:33:16;;;;;;;;;;;;;;;;;;5026097;28;19933;-70
2021/05/18 11:35:42;;;;;;;;;;;;;;;;;;5028029;28;19951;-70
2021/05/18 11:38:11;;;;;;;;;;;;;;;;;;5027027;28;19925;-70
2021/05/18 11:40:38;;;;;;;;;;;;;;;;;;5023197;28;20356;-70
2021/05/18 11:43:04;;;;;;;;;;;;;;;;;;5027609;28;19964;-68
2021/05/18 11:45:31;;;;;;;;;;;;;;;;;;5028524;28;19929;-69
2021/05/18 11:47:58;;;;;;;;;;;;;;;;;;5024733;28;20381;-69
2021/05/18 11:50:24;;;;;;;;;;;;;;;;;;5027040;28;20421;-69
2021/05/18 11:52:51;;;;;;;;;;;;;;;;;;5027601;28;20433;-72
2021/05/18 11:55:17;;;;;;;;;;;;;;;;;;5021027;28;19930;-71
2021/05/18 11:57:44;;;;;;;;;;;;;;;;;;5027276;28;19968;-71
2021/05/18 12:00:10;;;;;;;;;;;;;;;;;;5024583;28;20385;-69
2021/05/18 12:02:37;;;;;;;;;;;;;;;;;;5026806;28;19933;-70
2021/05/18 12:05:03;;;;;;;;;;;;;;;;;;5023441;28;19939;-69
2021/05/18 12:07:30;;;;;;;;;;;;;;;;;;5027590;28;20404;-70
2021/05/18 12:09:56;;;;;;;;;;;;;;;;;;5026466;28;20352;-69
2021/05/18 12:12:23;;;;;;;;;;;;;;;;;;5025200;28;20063;-70
2021/05/18 12:14:49;;;;;;;;;;;;;;;;;;5021587;28;19987;-71
2021/05/18 12:17:16;;;;;;;;;;;;;;;;;;5028705;28;19929;-71
2021/05/18 12:19:42;;;;;;;;;;;;;;;;;;5022387;28;19932;-70
2021/05/18 12:22:09;;;;;;;;;;;;;;;;;;5024670;28;20343;-70
2021/05/18 12:24:35;;;;;;;;;;;;;;;;;;5025440;28;19925;-71
2021/05/18 12:27:02;;;;;;;;;;;;;;;;;;5023764;28;20154;-70
2021/05/18 12:29:28;;;;;;;;;;;;;;;;;;5023615;28;19929;-70
2021/05/18 12:31:55;;;;;;;;;;;;;;;;;;5026550;28;20015;-69
2021/05/18 12:34:22;;;;;;;;;;;;;;;;;;5026175;28;19925;-71
2021/05/18 12:36:48;;;;;;;;;;;;;;;;;;5027458;28;20020;-70
2021/05/18 12:39:15;;;;;;;;;;;;;;;;;;5024763;28;19937;-70
2021/05/18 12:41:41;;;;;;;;;;;;;;;;;;5025694;28;20027;-70
2021/05/18 12:44:08;;;;;;;;;;;;;;;;;;5023933;28;20475;-69
2021/05/18 12:46:34;;;;;;;;;;;;;;;;;;5026073;28;19929;-69
2021/05/18 12:49:01;;;;;;;;;;;;;;;;;;5025582;28;20016;-70
2021/05/18 12:51:28;;;;;;;;;;;;;;;;;;5027872;28;20300;-69
2021/05/18 12:53:55;;;;;;;;;;;;;;;;;;5023276;28;19924;-70
2021/05/18 12:56:21;;;;;;;;;;;;;;;;;;5024630;28;20059;-71
2021/05/18 12:58:48;;;;;;;;;;;;;;;;;;5025708;28;20352;-68
2021/05/18 13:01:14;;;;;;;;;;;;;;;;;;5025310;28;19933;-73
2021/05/18 13:03:41;;;;;;;;;;;;;;;;;;5023047;28;20401;-71
2021/05/18 13:06:07;;;;;;;;;;;;;;;;;;5026156;28;19975;-72
2021/05/18 13:08:34;;;;;;;;;;;;;;;;;;5024372;28;19933;-70
2021/05/18 13:11:06;;;;;;;;;;;;;;;;;;5025097;28;19939;-69
2021/05/18 13:13:33;;;;;;;;;;;;;;;;;;5022983;28;19937;-71
2021/05/18 13:15:59;;;;;;;;;;;;;;;;;;5024497;28;19925;-70
2021/05/18 13:18:26;;;;;;;;;;;;;;;;;;5025286;28;20027;-69
2021/05/18 13:20:52;;;;;;;;;;;;;;;;;;5025600;28;20448;-69
2021/05/18 13:23:26;;;;;;;;;;;;;;;;;;5025577;28;19964;-69
2021/05/18 13:28:37;;;;;;;;;;;;;;;;;;5025067;28;19967;-65
2021/05/18 13:31:03;;;;;;;;;;;;;;;;;;5020795;28;19956;-65
2021/05/18 13:33:29;;;;;;;;;;;;;;;;;;5024251;28;20020;-67
2021/05/18 13:35:56;;;;;;;;;;;;;;;;;;5021178;28;20117;-65
2021/05/18 13:38:22;;;;;;;;;;;;;;;;;;5024543;28;19925;-66
2021/05/18 13:40:49;;;;;;;;;;;;;;;;;;5022853;28;20017;-64
2021/05/18 13:43:15;;;;;;;;;;;;;;;;;;5026412;28;20641;-65
2021/05/18 13:45:42;;;;;;;;;;;;;;;;;;5023957;28;19933;-64
2021/05/18 13:48:08;;;;;;;;;;;;;;;;;;5024277;28;20285;-65
2021/05/18 13:50:35;;;;;;;;;;;;;;;;;;5025461;28;19929;-67
2021/05/18 13:53:02;;;;;;;;;;;;;;;;;;5023801;28;19929;-66
2021/05/18 13:55:28;;;;;;;;;;;;;;;;;;5026842;28;19997;-65
2021/05/18 13:57:55;;;;;;;;;;;;;;;;;;5028130;28;19925;-67
2021/05/18 14:00:21;;;;;;;;;;;;;;;;;;5023803;28;20080;-71
2021/05/18 14:02:48;;;;;;;;;;;;;;;;;;5021478;28;19925;-69
2021/05/18 14:05:14;;;;;;;;;;;;;;;;;;5017680;28;19973;-70
2021/05/18 14:10:25;;;;;;;;;;;;;;;;;;5012513;28;19929;-70
2021/05/18 14:12:52;;;;;;;;;;;;;;;;;;5029303;28;19933;-72
2021/05/18 14:15:18;;;;;;;;;;;;;;;;;;5029049;28;20027;-70
2021/05/18 14:17:45;;;;;;;;;;;;;;;;;;5030336;28;19929;-70
2021/05/18 14:20:11;;;;;;;;;;;;;;;;;;5029591;28;20011;-69
2021/05/18 14:22:38;;;;;;;;;;;;;;;;;;5029638;28;20309;-70
2021/05/18 14:25:05;;;;;;;;;;;;;;;;;;5027263;28;20016;-71
2021/05/18 14:27:32;;;;;;;;;;;;;;;;;;5028666;28;19925;-71
2021/05/18 14:29:58;;;;;;;;;;;;;;;;;;5025331;28;19932;-69
2021/05/18 14:32:25;;;;;;;;;;;;;;;;;;5029381;28;19929;-68
2021/05/18 14:34:52;;;;;;;;;;;;;;;;;;5023928;28;20341;-68
2021/05/18 14:37:18;;;;;;;;;;;;;;;;;;5026190;28;19952;-68
2021/05/18 14:39:58;;;;;;;;;;;;;;;;;;5026953;28;20347;-69
2021/05/18 14:45:09;;;;;;;;;;;;;;;;;;5027593;28;19967;-70
2021/05/18 14:47:43;;;;;;;;;;;;;;;;;;5029158;28;20305;-70
2021/05/18 14:55:39;;;;;;;;;;;;;;;;;;5024240;28;20332;-72
2021/05/18 14:58:05;;;;;;;;;;;;;;;;;;5031516;28;19987;-73
2021/05/18 15:00:32;;;;;;;;;;;;;;;;;;5032551;28;19971;-69
2021/05/18 15:02:58;;;;;;;;;;;;;;;;;;5030920;28;19933;-69
2021/05/18 15:05:25;;;;;;;;;;;;;;;;;;5025308;28;20016;-71
2021/05/18 15:07:52;;;;;;;;;;;;;;;;;;5028159;28;20465;-71
2021/05/18 15:10:18;;;;;;;;;;;;;;;;;;5032423;28;20301;-72
2021/05/18 15:12:45;;;;;;;;;;;;;;;;;;5032807;28;19960;-72
2021/05/18 15:15:12;;;;;;;;;;;;;;;;;;5030708;28;19987;-71
2021/05/18 15:17:39;;;;;;;;;;;;;;;;;;5033772;28;19937;-69
2021/05/18 15:20:05;;;;;;;;;;;;;;;;;;5027227;28;19926;-70
2021/05/18 15:22:32;;;;;;;;;;;;;;;;;;5031458;28;19925;-71
2021/05/18 15:24:58;;;;;;;;;;;;;;;;;;5025867;28;19925;-71
2021/05/18 15:27:26;;;;;;;;;;;;;;;;;;5029450;28;20012;-71
2021/05/18 15:29:52;;;;;;;;;;;;;;;;;;5078051;22;19924;-66
2021/05/18 15:32:19;;;;;;;;;;;;;;;;;;5073399;28;19950;-65
2021/05/18 15:34:45;;;;;;;;;;;;;;;;;;5074798;28;19993;-65
2021/05/18 15:37:12;;;;;;;;;;;;;;;;;;5075087;28;20019;-66
2021/05/18 15:39:39;;;;;;;;;;;;;;;;;;5074562;28;20011;-66
2021/05/18 15:42:05;;;;;;;;;;;;;;;;;;5073800;28;19935;-66
2021/05/18 15:44:32;;;;;;;;;;;;;;;;;;5078423;28;19976;-66
2021/05/18 15:46:58;;;;;;;;;;;;;;;;;;5083280;28;20028;-66
2021/05/18 15:49:27;;;;;;;;;;;;;;;;;;5079641;28;20254;-66
2021/05/18 15:51:54;;;;;;;;;;;;;;;;;;5082208;28;19935;-66
2021/05/18 15:54:20;;;;;;;;;;;;;;;;;;5086173;28;20015;-65
2021/05/18 15:56:47;;;;;;;;;;;;;;;;;;5085263;28;19973;-64
2021/05/18 15:59:13;;;;;;;;;;;;;;;;;;5082853;28;19924;-70
2021/05/18 16:01:40;;;;;;;;;;;;;;;;;;5087629;28;19972;-65
2021/05/18 16:04:07;;;;;;;;;;;;;;;;;;5085874;28;19932;-66
2021/05/18 16:06:33;;;;;;;;;;;;;;;;;;5081035;28;19928;-65
2021/05/18 16:09:00;;;;;;;;;;;;;;;;;;5078601;28;19929;-65
2021/05/18 16:11:27;;;;;;;;;;;;;;;;;;5078060;28;19986;-65
2021/05/18 16:13:53;;;;;;;;;;;;;;;;;;5077752;28;19925;-67
2021/05/18 16:16:20;;;;;;;;;;;;;;;;;;5074560;28;20456;-67
2021/05/18 16:18:46;;;;;;;;;;;;;;;;;;5075169;28;20411;-66
2021/05/18 16:21:13;;;;;;;;;;;;;;;;;;5076781;28;19986;-67
2021/05/18 16:23:40;;;;;;;;;;;;;;;;;;5073876;28;19985;-67
2021/05/18 16:26:07;;;;;;;;;;;;;;;;;;5074517;28;19951;-66
2021/05/18 16:28:33;;;;;;;;;;;;;;;;;;5078899;28;19954;-65
2021/05/18 16:31:00;;;;;;;;;;;;;;;;;;5078187;28;20066;-65
2021/05/18 16:33:27;;;;;;;;;;;;;;;;;;5077297;28;19925;-65
2021/05/18 16:35:54;;;;;;;;;;;;;;;;;;5077416;28;20388;-65
2021/05/18 16:38:20;;;;;;;;;;;;;;;;;;5077528;28;19943;-65
2021/05/18 16:40:51;;;;;;;;;;;;;;;;;;5075839;28;20383;-66
2021/05/18 16:43:18;;;;;;;;;;;;;;;;;;5074831;28;19929;-66
2021/05/18 16:45:44;;;;;;;;;;;;;;;;;;5074117;28;20303;-66
2021/05/18 16:48:10;;;;;;;;;;;;;;;;;;5077822;28;19931;-66
2021/05/18 16:50:37;;;;;;;;;;;;;;;;;;5078253;28;19932;-66
2021/05/18 16:53:03;;;;;;;;;;;;;;;;;;5074048;28;20008;-66
2021/05/18 16:55:30;;;;;;;;;;;;;;;;;;5075808;28;19969;-66
2021/05/18 16:57:58;;;;;;;;;;;;;;;;;;5075057;28;19928;-66
2021/05/18 17:00:24;;;;;;;;;;;;;;;;;;5075764;28;20027;-65
2021/05/18 17:02:50;;;;;;;;;;;;;;;;;;5076007;28;20384;-66
2021/05/18 17:05:17;;;;;;;;;;;;;;;;;;5076148;28;19932;-66
2021/05/18 17:07:44;;;;;;;;;;;;;;;;;;5077832;28;20363;-66
2021/05/18 17:10:10;;;;;;;;;;;;;;;;;;5075591;28;19928;-66
2021/05/18 17:12:36;;;;;;;;;;;;;;;;;;5074347;28;19934;-66
2021/05/18 17:15:03;;;;;;;;;;;;;;;;;;5075142;28;20291;-66
2021/05/18 17:17:29;;;;;;;;;;;;;;;;;;5075842;28;19924;-66
2021/05/18 17:19:56;;;;;;;;;;;;;;;;;;5074956;28;20039;-65
2021/05/18 17:22:24;;;;;;;;;;;;;;;;;;5076407;28;20001;-65
2021/05/18 17:24:50;;;;;;;;;;;;;;;;;;5074755;28;19924;-64
2021/05/18 17:27:17;;;;;;;;;;;;;;;;;;5076698;28;20041;-64
2021/05/18 17:29:43;;;;;;;;;;;;;;;;;;5073608;28;19931;-64
2021/05/18 17:32:11;;;;;;;;;;;;;;;;;;5074488;28;19983;-65
2021/05/18 17:34:37;;;;;;;;;;;;;;;;;;5072078;28;20023;-66
2021/05/18 17:37:04;;;;;;;;;;;;;;;;;;5072318;28;19931;-65
2021/05/18 17:39:31;;;;;;;;;;;;;;;;;;5074895;28;19934;-65
2021/05/18 17:41:58;;;;;;;;;;;;;;;;;;5069955;28;20031;-66
2021/05/18 17:44:27;;;;;;;;;;;;;;;;;;5074442;28;19966;-66
2021/05/18 17:46:53;;;;;;;;;;;;;;;;;;5074689;28;19924;-66
2021/05/18 17:49:21;;;;;;;;;;;;;;;;;;5074629;28;19930;-66
2021/05/18 17:51:48;;;;;;;;;;;;;;;;;;5078032;28;20407;-66
2021/05/18 17:54:14;;;;;;;;;;;;;;;;;;5075021;28;19978;-66
2021/05/18 17:56:41;;;;;;;;;;;;;;;;;;5080160;28;20015;-66
2021/05/18 17:59:07;;;;;;;;;;;;;;;;;;5076449;28;20384;-66
2021/05/18 18:01:34;;;;;;;;;;;;;;;;;;5075504;28;20392;-66
2021/05/18 18:04:01;;;;;;;;;;;;;;;;;;5080885;28;19971;-66
2021/05/18 18:06:27;;;;;;;;;;;;;;;;;;5073664;28;19937;-66
2021/05/18 18:08:56;;;;;;;;;;;;;;;;;;5071219;28;20378;-66
2021/05/18 18:11:22;;;;;;;;;;;;;;;;;;5075343;28;19925;-66
2021/05/18 18:13:49;;;;;;;;;;;;;;;;;;5073907;28;20027;-66
2021/05/18 18:16:15;;;;;;;;;;;;;;;;;;5073794;28;19924;-66
2021/05/18 18:18:42;;;;;;;;;;;;;;;;;;5074845;28;19928;-66
2021/05/18 18:21:08;;;;;;;;;;;;;;;;;;5071658;28;19929;-66
2021/05/18 18:23:35;;;;;;;;;;;;;;;;;;5074382;28;20408;-66
2021/05/18 18:26:01;;;;;;;;;;;;;;;;;;5072356;28;19925;-66
2021/05/18 18:28:28;;;;;;;;;;;;;;;;;;5074531;28;19979;-65
2021/05/18 18:30:54;;;;;;;;;;;;;;;;;;5074081;28;19967;-66
2021/05/18 18:33:22;;;;;;;;;;;;;;;;;;5076032;28;20397;-66
2021/05/18 18:35:48;;;;;;;;;;;;;;;;;;5076842;28;19928;-66
2021/05/18 18:38:15;;;;;;;;;;;;;;;;;;5074726;28;19956;-67
2021/05/18 18:40:41;;;;;;;;;;;;;;;;;;5072983;28;19924;-66
2021/05/18 18:43:07;;;;;;;;;;;;;;;;;;5072648;28;20204;-66
2021/05/18 18:45:35;;;;;;;;;;;;;;;;;;5074608;28;19938;-65
2021/05/18 18:48:02;;;;;;;;;;;;;;;;;;5074642;28;19924;-66
2021/05/18 18:50:30;;;;;;;;;;;;;;;;;;5073027;28;19932;-66
2021/05/18 18:53:00;;;;;;;;;;;;;;;;;;5074470;28;19935;-65
2021/05/18 18:55:26;;;;;;;;;;;;;;;;;;5077351;28;20409;-66
2021/05/18 18:57:53;;;;;;;;;;;;;;;;;;5076367;28;19924;-66
2021/05/18 19:00:20;;;;;;;;;;;;;;;;;;5078751;28;20291;-66
2021/05/18 19:02:50;;;;;;;;;;;;;;;;;;5082390;28;20041;-67
2021/05/18 19:05:25;;;;;;;;;;;;;;;;;;5074434;28;19928;-66
2021/05/18 19:08:03;;;;;;;;;;;;;;;;;;5076790;28;20359;-66
2021/05/18 19:10:33;;;;;;;;;;;;;;;;;;5076880;28;20368;-67
2021/05/18 19:12:59;;;;;;;;;;;;;;;;;;5072304;28;21444;-66
2021/05/18 19:15:26;;;;;;;;;;;;;;;;;;5074400;28;20019;-66
2021/05/18 19:17:52;;;;;;;;;;;;;;;;;;5073111;28;19924;-66
2021/05/18 19:20:20;;;;;;;;;;;;;;;;;;5074426;28;19967;-66
2021/05/18 19:22:46;;;;;;;;;;;;;;;;;;5073669;28;20350;-67
2021/05/18 19:25:13;;;;;;;;;;;;;;;;;;5073714;28;20030;-67
2021/05/18 19:27:41;;;;;;;;;;;;;;;;;;5074062;28;19951;-67
2021/05/18 19:30:07;;;;;;;;;;;;;;;;;;5077519;28;19932;-66
2021/05/18 19:32:34;;;;;;;;;;;;;;;;;;5076688;28;20419;-65
2021/05/18 19:35:01;;;;;;;;;;;;;;;;;;5075898;28;20019;-67
2021/05/18 19:37:34;;;;;;;;;;;;;;;;;;5078054;28;19924;-66
2021/05/18 19:45:49;;;;;;;;;;;;;;;;;;5074714;28;19936;-66
2021/05/18 19:48:19;;;;;;;;;;;;;;;;;;5079205;28;19932;-66
2021/05/18 19:50:45;;;;;;;;;;;;;;;;;;5074484;28;19936;-67
2021/05/18 19:53:14;;;;;;;;;;;;;;;;;;5080960;28;19925;-67
2021/05/18 19:55:47;;;;;;;;;;;;;;;;;;5074509;28;19924;-67
2021/05/18 19:58:37;;;;;;;;;;;;;;;;;;5079642;28;20307;-67
2021/05/18 20:15:28;;;;;;;;;;;;;;;;;;5041428;28;19924;-66
2021/05/18 20:19:23;;;;;;;;;;;;;;;;;;5076561;28;19993;-67
2021/05/18 20:20:52;;;;;;;;;;;;;;;;;;5077604;28;19926;-67
2021/05/18 20:23:18;;;;;;;;;;;;;;;;;;5080832;28;19935;-67
2021/05/18 20:25:45;;;;;;;;;;;;;;;;;;5076964;28;20389;-67
2021/05/18 20:28:11;;;;;;;;;;;;;;;;;;5077850;28;19930;-67
2021/05/18 20:30:38;;;;;;;;;;;;;;;;;;5077186;28;19971;-67
2021/05/18 20:33:07;;;;;;;;;;;;;;;;;;5074636;28;19997;-67
2021/05/18 20:35:40;;;;;;;;;;;;;;;;;;5076446;28;19968;-67
2021/05/18 20:40:51;;;;;;;;;;;;;;;;;;5078327;28;19969;-67
2021/05/18 20:43:18;;;;;;;;;;;;;;;;;;5081128;28;19929;-66
2021/05/18 20:45:44;;;;;;;;;;;;;;;;;;5073164;28;19924;-67
2021/05/18 20:48:11;;;;;;;;;;;;;;;;;;5073495;28;19928;-66
2021/05/18 20:50:37;;;;;;;;;;;;;;;;;;5073037;28;19925;-67
2021/05/18 20:53:07;;;;;;;;;;;;;;;;;;5075971;28;20015;-67
2021/05/18 20:55:33;;;;;;;;;;;;;;;;;;5081039;28;19924;-67
2021/05/18 20:58:00;;;;;;;;;;;;;;;;;;5080213;28;19931;-66
2021/05/18 21:00:26;;;;;;;;;;;;;;;;;;5073983;28;20007;-67
2021/05/18 21:02:52;;;;;;;;;;;;;;;;;;5074328;28;19924;-67
2021/05/18 21:05:22;;;;;;;;;;;;;;;;;;5080372;28;19990;-67
2021/05/18 21:08:18;;;;;;;;;;;;;;;;;;5079106;28;19936;-65
2021/05/18 21:10:56;;;;;;;;;;;;;;;;;;5073940;28;19924;-66
2021/05/18 21:13:27;;;;;;;;;;;;;;;;;;5077925;28;19928;-67
2021/05/18 21:15:53;;;;;;;;;;;;;;;;;;5078043;28;19935;-66
2021/05/18 21:18:20;;;;;;;;;;;;;;;;;;5073622;28;19974;-67
2021/05/18 21:20:46;;;;;;;;;;;;;;;;;;5071300;28;19947;-67
2021/05/18 21:23:13;;;;;;;;;;;;;;;;;;5074753;28;20008;-67
2021/05/18 21:25:39;;;;;;;;;;;;;;;;;;5078323;28;19932;-67
2021/05/18 21:28:06;;;;;;;;;;;;;;;;;;5079947;28;20358;-67
2021/05/18 21:30:32;;;;;;;;;;;;;;;;;;5075544;28;19924;-67
2021/05/18 21:32:59;;;;;;;;;;;;;;;;;;5069311;28;19978;-68